createdAt,value
2022-11-22T00:00:00.419Z,6.3
2022-11-22T00:05:00.427Z,6.3
2022-11-22T00:10:00.389Z,6.3
2022-11-22T00:15:00.433Z,6.3
2022-11-22T00:20:00.409Z,6.3
2022-11-22T00:25:00.379Z,6.3
2022-11-22T00:30:00.341Z,6.3
2022-11-22T00:35:00.344Z,6.3
2022-11-22T00:40:00.353Z,6.3
2022-11-22T00:45:00.385Z,6.3
2022-11-22T00:50:00.513Z,6.3
2022-11-22T00:55:00.374Z,6.3
2022-11-22T01:00:00.395Z,6.3
2022-11-22T01:05:00.404Z,6.3
2022-11-22T01:10:00.430Z,6.3
2022-11-22T01:15:00.439Z,6.4
2022-11-22T01:20:00.338Z,6.4
2022-11-22T01:25:00.409Z,6.4
2022-11-22T01:30:00.483Z,6.4
2022-11-22T01:35:00.403Z,6.4
2022-11-22T01:40:00.549Z,6.4
2022-11-22T01:45:00.454Z,6.4
2022-11-22T01:50:00.437Z,6.4
2022-11-22T01:55:00.408Z,6.4
2022-11-22T02:00:00.387Z,6.4
2022-11-22T02:05:00.496Z,6.3
2022-11-22T02:10:00.367Z,6.4
2022-11-22T02:15:00.757Z,6.4
2022-11-22T02:20:00.330Z,6.3
2022-11-22T02:25:00.358Z,6.3
2022-11-22T02:30:00.393Z,6.3
2022-11-22T02:35:00.386Z,6.3
2022-11-22T02:40:00.368Z,6.4
2022-11-22T02:45:00.495Z,6.4
2022-11-22T02:50:00.392Z,6.4
2022-11-22T02:55:00.501Z,6.4
2022-11-22T03:00:00.386Z,6.4
2022-11-22T03:05:00.386Z,6.4
2022-11-22T03:10:00.331Z,6.4
2022-11-22T03:15:00.425Z,6.4
2022-11-22T03:20:00.458Z,6.4
2022-11-22T03:25:00.418Z,6.4
2022-11-22T03:30:00.414Z,6.3
2022-11-22T03:35:00.345Z,6.3
2022-11-22T03:40:00.599Z,6.3
2022-11-22T03:45:00.530Z,6.3
2022-11-22T03:50:00.384Z,6.3
2022-11-22T03:55:00.422Z,6.3
2022-11-22T04:00:00.380Z,6.3
2022-11-22T04:05:00.474Z,6.3
2022-11-22T04:10:00.449Z,6.3
2022-11-22T04:15:00.412Z,6.4
2022-11-22T04:20:00.354Z,6.3
2022-11-22T04:25:00.452Z,6.4
2022-11-22T04:30:00.475Z,6.4
2022-11-22T04:35:00.401Z,6.4
2022-11-22T04:40:00.464Z,6.4
2022-11-22T04:45:00.413Z,6.4
2022-11-22T04:50:00.385Z,6.3
2022-11-22T04:55:00.477Z,6.3
2022-11-22T05:00:00.401Z,6.3
2022-11-22T05:05:00.392Z,6.3
2022-11-22T05:10:00.351Z,6.3
2022-11-22T05:15:00.377Z,6.4
2022-11-22T05:20:00.409Z,6.4
2022-11-22T05:25:00.471Z,6.4
2022-11-22T05:30:00.426Z,6.4
2022-11-22T05:35:00.439Z,6.4
2022-11-22T05:40:00.339Z,6.4
2022-11-22T05:45:00.451Z,6.3
2022-11-22T05:50:00.358Z,6.3
2022-11-22T05:55:00.412Z,6.3
2022-11-22T06:00:00.469Z,6.3
2022-11-22T06:05:00.377Z,6.3
2022-11-22T06:10:00.300Z,6.3
2022-11-22T06:15:00.471Z,6.3
2022-11-22T06:20:05.629Z,6.3
2022-11-22T06:25:00.411Z,6.3
2022-11-22T06:30:00.497Z,6.3
2022-11-22T06:35:00.389Z,6.3
2022-11-22T06:40:00.391Z,6.3
2022-11-22T06:45:00.363Z,6.3
2022-11-22T06:50:00.431Z,6.3
2022-11-22T06:55:00.410Z,6.3
2022-11-22T07:00:00.405Z,6.3
2022-11-22T07:05:24.369Z,6.3
2022-11-22T07:10:00.436Z,6.3
2022-11-22T07:15:00.441Z,6.2
2022-11-22T07:20:00.366Z,6.2
2022-11-22T07:25:00.442Z,6.2
2022-11-22T07:30:00.427Z,6.1
2022-11-22T07:35:00.467Z,6.1
2022-11-22T07:40:00.505Z,6.1
2022-11-22T07:45:00.446Z,6.1
2022-11-22T07:50:00.417Z,6.1
2022-11-22T07:55:00.503Z,6.1
2022-11-22T08:00:00.498Z,6.1
2022-11-22T08:05:00.332Z,6.3
2022-11-22T08:10:00.437Z,6.3
2022-11-22T08:15:00.399Z,6.3
2022-11-22T08:20:00.460Z,6.3
2022-11-22T08:25:00.384Z,6.3
2022-11-22T08:30:00.488Z,6.3
2022-11-22T08:35:00.402Z,6.3
2022-11-22T08:40:00.416Z,6.3
2022-11-22T08:45:00.410Z,6.3
2022-11-22T08:50:00.682Z,6.3
2022-11-22T08:55:00.491Z,6.2
2022-11-22T09:00:00.460Z,6.2
2022-11-22T09:05:00.430Z,6.2
2022-11-22T09:10:00.447Z,6.1
2022-11-22T09:15:00.437Z,6.1
2022-11-22T09:20:00.373Z,6
2022-11-22T09:25:00.366Z,6
2022-11-22T09:30:00.516Z,6
2022-11-22T09:35:00.444Z,6
2022-11-22T09:40:00.429Z,6.1
2022-11-22T09:45:00.426Z,6
2022-11-22T09:50:00.427Z,6
2022-11-22T09:55:00.370Z,6
2022-11-22T10:00:00.479Z,5.9
2022-11-22T10:05:00.448Z,6
2022-11-22T10:10:00.484Z,5.9
2022-11-22T10:15:00.449Z,5.9
2022-11-22T10:20:00.486Z,5.9
2022-11-22T10:25:00.396Z,5.9
2022-11-22T10:30:00.506Z,5.9
2022-11-22T10:35:00.389Z,5.9
2022-11-22T10:40:00.644Z,5.9
2022-11-22T10:45:00.542Z,5.9
2022-11-22T10:50:00.347Z,5.9
2022-11-22T10:55:00.406Z,5.9
2022-11-22T11:00:00.432Z,6
2022-11-22T11:05:00.375Z,5.9
2022-11-22T11:10:11.141Z,5.9
2022-11-22T11:15:00.374Z,5.9
2022-11-22T11:20:00.440Z,5.8
2022-11-22T11:25:00.385Z,5.8
2022-11-22T11:30:00.435Z,5.8
2022-11-22T11:35:00.392Z,5.8
2022-11-22T11:40:00.347Z,5.7
2022-11-22T11:45:00.386Z,5.7
2022-11-22T11:50:00.459Z,5.7
2022-11-22T11:55:00.385Z,5.7
2022-11-22T12:00:00.437Z,5.7
2022-11-22T12:05:00.414Z,5.8
2022-11-22T12:10:00.408Z,5.8
2022-11-22T12:15:12.003Z,5.8
2022-11-22T12:20:00.411Z,5.8
2022-11-22T12:25:24.660Z,5.8
2022-11-22T12:30:00.420Z,5.8
2022-11-22T12:35:00.393Z,5.8
2022-11-22T12:40:00.440Z,5.8
2022-11-22T12:45:00.458Z,5.7
2022-11-22T12:50:00.534Z,5.7
2022-11-22T12:55:00.387Z,5.6
2022-11-22T13:00:00.405Z,5.6
2022-11-22T13:05:00.410Z,5.6
2022-11-22T13:10:00.393Z,5.6
2022-11-22T13:15:00.378Z,5.6
2022-11-22T13:20:00.466Z,5.5
2022-11-22T13:25:00.463Z,5.5
2022-11-22T13:30:00.410Z,5.5
2022-11-22T13:35:00.399Z,5.6
2022-11-22T13:40:00.373Z,5.5
2022-11-22T13:45:00.364Z,5.5
2022-11-22T13:50:00.397Z,5.5
2022-11-22T13:55:00.402Z,5.5
2022-11-22T14:00:00.415Z,5.5
2022-11-22T14:05:00.402Z,5.6
2022-11-22T14:10:00.419Z,5.6
2022-11-22T14:15:00.396Z,5.7
2022-11-22T14:20:00.394Z,5.7
2022-11-22T14:25:00.401Z,5.8
2022-11-22T14:30:00.381Z,5.7
2022-11-22T14:35:00.370Z,5.7
2022-11-22T14:40:00.515Z,5.7
2022-11-22T14:45:00.427Z,5.7
2022-11-22T14:50:00.364Z,5.7
2022-11-22T14:55:00.357Z,5.6
2022-11-22T15:00:00.394Z,5.6
2022-11-22T15:09:08.976Z,5.6
2022-11-22T16:00:00.419Z,5.5
2022-11-22T16:06:05.054Z,5.5
2022-11-22T16:10:00.357Z,5.5
2022-11-22T16:15:00.412Z,5.5
2022-11-22T16:20:00.370Z,5.5
2022-11-22T16:25:00.376Z,5.4
2022-11-22T16:30:00.350Z,5.5
2022-11-22T16:35:21.991Z,5.5
2022-11-22T16:40:00.437Z,5.5
2022-11-22T16:45:03.871Z,5.4
2022-11-22T16:50:00.409Z,5.4
2022-11-22T16:55:00.409Z,5.5
2022-11-22T17:00:00.369Z,5.5
2022-11-22T17:05:00.320Z,5.5
2022-11-22T17:10:00.401Z,5.4
2022-11-22T17:15:00.355Z,5.4
2022-11-22T17:20:00.552Z,5.5
2022-11-22T17:25:00.357Z,5.5
2022-11-22T17:30:00.488Z,5.4
2022-11-22T17:35:00.348Z,5.4
2022-11-22T17:40:00.381Z,5.4
2022-11-22T17:45:00.344Z,5.4
2022-11-22T17:50:00.383Z,5.4
2022-11-22T17:55:04.838Z,5.5
2022-11-22T18:00:00.365Z,5.5
2022-11-22T18:05:00.408Z,5.5
2022-11-22T18:10:00.443Z,5.5
2022-11-22T18:15:00.363Z,5.4
2022-11-22T18:20:00.395Z,5.5
2022-11-22T18:25:00.360Z,5.5
2022-11-22T18:30:00.500Z,5.5
2022-11-22T18:35:00.682Z,5.5
2022-11-22T18:40:00.386Z,5.5
2022-11-22T18:45:00.331Z,5.4
2022-11-22T18:50:00.394Z,5.4
2022-11-22T18:55:00.381Z,5.4
2022-11-22T19:00:00.373Z,5.4
2022-11-22T19:05:00.390Z,5.4
2022-11-22T19:10:00.401Z,5.5
2022-11-22T19:15:00.326Z,5.4
2022-11-22T19:20:00.426Z,5.4
2022-11-22T19:25:00.372Z,5.4
2022-11-22T19:30:00.581Z,5.4
2022-11-22T19:35:00.400Z,5.4
2022-11-22T19:40:00.336Z,5.5
2022-11-22T19:45:00.417Z,5.4
2022-11-22T19:50:00.315Z,5.4
2022-11-22T19:55:00.407Z,5.5
2022-11-22T20:00:00.494Z,5.5
2022-11-22T20:05:00.348Z,5.5
2022-11-22T20:10:00.364Z,5.5
2022-11-22T20:15:00.504Z,5.5
2022-11-22T20:20:00.449Z,5.5
2022-11-22T20:25:00.369Z,5.5
2022-11-22T20:30:00.499Z,5.5
2022-11-22T20:35:00.344Z,5.5
2022-11-22T20:40:00.307Z,5.5
2022-11-22T20:45:00.375Z,5.6
2022-11-22T20:50:00.432Z,5.5
2022-11-22T20:55:04.737Z,5.5
2022-11-22T21:00:00.438Z,5.5
2022-11-22T21:05:00.378Z,5.5
2022-11-22T21:10:00.417Z,5.5
2022-11-22T21:15:00.456Z,5.5
2022-11-22T21:20:00.366Z,5.5
2022-11-22T21:25:00.344Z,5.5
2022-11-22T21:30:00.373Z,5.5
2022-11-22T21:35:00.429Z,5.5
2022-11-22T21:40:00.434Z,5.5
2022-11-22T21:45:00.397Z,5.6
2022-11-22T21:50:00.356Z,5.6
2022-11-22T21:55:00.390Z,5.5
2022-11-22T22:00:00.421Z,5.6
2022-11-22T22:05:00.350Z,5.5
2022-11-22T22:10:00.378Z,5.6
2022-11-22T22:15:00.446Z,5.5
2022-11-22T22:20:00.383Z,5.5
2022-11-22T22:25:00.389Z,5.6
2022-11-22T22:30:00.403Z,5.5
2022-11-22T22:35:00.422Z,5.6
2022-11-22T22:40:00.463Z,5.6
2022-11-22T22:45:00.395Z,5.6
2022-11-22T22:50:00.469Z,5.6
2022-11-22T22:55:00.474Z,5.6
2022-11-22T23:00:00.415Z,5.6
2022-11-22T23:05:00.325Z,5.6
2022-11-22T23:10:00.389Z,5.6
2022-11-22T23:15:00.359Z,5.6
2022-11-22T23:20:00.377Z,5.6
2022-11-22T23:25:00.361Z,5.7
2022-11-22T23:30:00.327Z,5.7
2022-11-22T23:35:00.371Z,5.6
2022-11-22T23:40:00.437Z,5.6
2022-11-22T23:45:00.347Z,5.6
2022-11-22T23:50:00.424Z,5.6
2022-11-22T23:55:00.341Z,5.6
